Time;durP1;ratioP1;P1;durP2;ratioP2;P2;SDS_P1;SDS_P2;PMS_P1;PMS_P2;Temp;Humidity;BMP_temperature;BMP_pressure;BME280_temperature;BME280_humidity;BME280_pressure;Samples;Min_cycle;Max_cycle;Signal;HPM_P1;HPM_P2
2023/03/15 00:01:22;;;;;;;5.88;2.08;;;;;;;;;;5096439;28;20370;-72
2023/03/15 00:04:07;;;;;;;3.00;1.83;;;;;;;;;;5096644;28;20032;-71
2023/03/15 00:06:53;;;;;;;4.32;2.15;;;;;;;;;;5096740;28;20109;-70
2023/03/15 00:09:38;;;;;;;4.00;1.80;;;;;;;;;;5096326;28;20448;-72
2023/03/15 00:12:24;;;;;;;4.40;2.08;;;;;;;;;;5096263;28;20028;-72
2023/03/15 00:15:14;;;;;;;4.43;2.17;;;;;;;;;;5096718;28;20533;-68
2023/03/15 00:18:02;;;;;;;4.18;2.38;;;;;;;;;;5096781;28;20031;-71
2023/03/15 00:20:47;;;;;;;4.85;2.30;;;;;;;;;;5097677;28;20024;-71
2023/03/15 00:23:33;;;;;;;4.93;2.55;;;;;;;;;;5099610;28;20028;-72
2023/03/15 00:26:18;;;;;;;4.72;2.42;;;;;;;;;;5097951;28;20019;-71
2023/03/15 00:29:04;;;;;;;11.48;3.08;;;;;;;;;;5097336;28;20027;-72
2023/03/15 00:31:50;;;;;;;6.38;2.40;;;;;;;;;;5096425;28;20089;-70
2023/03/15 00:34:36;;;;;;;4.38;2.60;;;;;;;;;;5082681;28;20019;-72
2023/03/15 00:37:24;;;;;;;5.93;2.85;;;;;;;;;;5096449;28;20016;-71
2023/03/15 00:40:11;;;;;;;5.65;2.80;;;;;;;;;;5096706;28;20016;-71
2023/03/15 00:42:56;;;;;;;4.00;2.60;;;;;;;;;;5096859;28;20020;-71
2023/03/15 00:45:44;;;;;;;5.03;2.63;;;;;;;;;;5081348;28;20044;-71
2023/03/15 00:48:29;;;;;;;5.07;2.25;;;;;;;;;;5082460;28;20016;-71
2023/03/15 00:51:16;;;;;;;8.45;2.20;;;;;;;;;;5081186;28;20049;-72
2023/03/15 00:54:02;;;;;;;4.07;2.35;;;;;;;;;;5098075;27;20024;-71
2023/03/15 00:56:48;;;;;;;4.93;2.53;;;;;;;;;;5097861;28;20024;-71
2023/03/15 00:59:34;;;;;;;10.85;2.88;;;;;;;;;;5082057;28;20016;-72
2023/03/15 01:02:21;;;;;;;7.40;2.67;;;;;;;;;;5080017;28;20099;-71
2023/03/15 01:05:07;;;;;;;3.47;2.30;;;;;;;;;;5094913;28;20039;-71
2023/03/15 01:07:52;;;;;;;6.72;2.70;;;;;;;;;;5081427;28;20059;-71
2023/03/15 01:10:38;;;;;;;3.80;2.00;;;;;;;;;;5081401;28;20042;-70
2023/03/15 01:13:24;;;;;;;6.60;2.17;;;;;;;;;;5081669;28;20123;-70
2023/03/15 01:16:11;;;;;;;6.78;2.78;;;;;;;;;;5095688;28;20027;-70
2023/03/15 01:18:56;;;;;;;8.68;2.40;;;;;;;;;;5094452;28;20515;-70
2023/03/15 01:21:43;;;;;;;8.63;2.40;;;;;;;;;;5095347;28;20034;-70
2023/03/15 01:24:28;;;;;;;6.30;2.70;;;;;;;;;;5095513;28;20485;-71
2023/03/15 01:27:14;;;;;;;23.27;3.88;;;;;;;;;;5095769;28;20019;-70
2023/03/15 01:30:00;;;;;;;20.63;2.97;;;;;;;;;;5095081;28;20463;-72
2023/03/15 01:32:45;;;;;;;3.85;2.40;;;;;;;;;;5094804;28;20089;-71
2023/03/15 01:35:31;;;;;;;4.28;2.60;;;;;;;;;;5095989;28;20048;-70
2023/03/15 01:38:16;;;;;;;4.82;2.60;;;;;;;;;;5095747;28;20103;-71
2023/03/15 01:41:02;;;;;;;6.78;3.22;;;;;;;;;;5095167;28;20352;-71
2023/03/15 01:43:47;;;;;;;4.93;3.20;;;;;;;;;;5095000;28;20028;-72
2023/03/15 01:46:33;;;;;;;3.85;2.90;;;;;;;;;;5095660;28;20047;-71
2023/03/15 01:49:29;;;;;;;7.03;3.40;;;;;;;;;;5095142;28;20020;-71
2023/03/15 01:52:18;;;;;;;7.97;3.60;;;;;;;;;;5079164;28;20020;-71
2023/03/15 01:55:06;;;;;;;7.05;3.10;;;;;;;;;;5093571;28;20052;-71
2023/03/15 01:57:54;;;;;;;4.45;3.28;;;;;;;;;;5078841;28;20452;-70
2023/03/15 02:00:40;;;;;;;6.47;3.25;;;;;;;;;;5094772;28;20020;-71
2023/03/15 02:03:34;;;;;;;10.23;3.80;;;;;;;;;;5096062;27;20020;-71
2023/03/15 02:06:22;;;;;;;9.73;3.58;;;;;;;;;;5096123;28;20052;-70
2023/03/15 02:09:13;;;;;;;6.78;3.70;;;;;;;;;;5095816;28;20024;-71
2023/03/15 02:11:58;;;;;;;6.80;3.75;;;;;;;;;;5094576;28;20072;-71
2023/03/15 02:14:44;;;;;;;6.53;3.40;;;;;;;;;;5094541;28;20441;-71
2023/03/15 02:17:35;;;;;;;6.72;3.67;;;;;;;;;;5093385;28;20012;-70
2023/03/15 02:20:26;;;;;;;6.57;4.10;;;;;;;;;;5094734;28;20024;-71
2023/03/15 02:23:12;;;;;;;8.93;3.58;;;;;;;;;;5094519;28;20016;-70
2023/03/15 02:25:58;;;;;;;11.07;3.70;;;;;;;;;;5093407;28;20028;-71
2023/03/15 02:28:44;;;;;;;7.25;3.55;;;;;;;;;;5094524;28;20027;-70
2023/03/15 02:31:36;;;;;;;6.85;3.70;;;;;;;;;;5093850;28;20052;-71
2023/03/15 02:34:24;;;;;;;6.90;3.70;;;;;;;;;;5093625;28;20097;-70
2023/03/15 02:37:09;;;;;;;19.85;4.82;;;;;;;;;;5094239;28;20016;-70
2023/03/15 02:39:55;;;;;;;5.10;3.22;;;;;;;;;;5078903;28;20051;-72
2023/03/15 02:42:41;;;;;;;6.85;3.28;;;;;;;;;;5094273;28;20401;-71
2023/03/15 02:45:27;;;;;;;10.57;4.18;;;;;;;;;;5080438;28;20059;-72
2023/03/15 02:48:14;;;;;;;6.18;3.50;;;;;;;;;;5093762;28;20023;-71
2023/03/15 02:51:00;;;;;;;6.57;3.45;;;;;;;;;;5093372;28;20106;-71
2023/03/15 02:53:46;;;;;;;6.90;3.38;;;;;;;;;;5093083;28;20024;-71
2023/03/15 02:56:32;;;;;;;10.40;3.90;;;;;;;;;;5094477;28;20348;-70
2023/03/15 02:59:18;;;;;;;13.60;4.25;;;;;;;;;;5093658;28;20024;-71
2023/03/15 03:02:03;;;;;;;5.03;3.30;;;;;;;;;;5093867;28;20020;-70
2023/03/15 03:04:51;;;;;;;6.25;3.50;;;;;;;;;;5094482;28;20429;-70
2023/03/15 03:07:37;;;;;;;4.97;3.28;;;;;;;;;;5096843;28;20052;-71
2023/03/15 03:10:22;;;;;;;29.42;4.95;;;;;;;;;;5098376;28;20085;-70
2023/03/15 03:13:08;;;;;;;10.13;3.85;;;;;;;;;;5097787;28;20479;-71
2023/03/15 03:15:57;;;;;;;8.93;3.70;;;;;;;;;;5097491;28;20032;-71
2023/03/15 03:18:42;;;;;;;10.85;3.63;;;;;;;;;;5098070;28;20352;-71
2023/03/15 03:21:28;;;;;;;7.35;3.50;;;;;;;;;;5097388;28;20024;-71
2023/03/15 03:24:14;;;;;;;7.47;3.30;;;;;;;;;;5082224;28;20089;-71
2023/03/15 03:27:00;;;;;;;11.63;3.60;;;;;;;;;;5097999;28;20028;-71
2023/03/15 03:29:46;;;;;;;11.20;3.40;;;;;;;;;;5096890;28;20085;-71
2023/03/15 03:32:31;;;;;;;4.93;3.25;;;;;;;;;;5098197;28;20089;-71
2023/03/15 03:35:17;;;;;;;5.78;3.20;;;;;;;;;;5097208;28;20020;-70
2023/03/15 03:38:02;;;;;;;5.32;3.85;;;;;;;;;;5097270;28;20024;-71
2023/03/15 03:40:48;;;;;;;6.45;3.92;;;;;;;;;;5097106;28;20445;-70
2023/03/15 03:43:33;;;;;;;5.28;3.22;;;;;;;;;;5097084;28;20024;-71
2023/03/15 03:46:19;;;;;;;7.45;3.38;;;;;;;;;;5097602;28;20016;-70
2023/03/15 03:49:05;;;;;;;8.45;3.67;;;;;;;;;;5097304;28;20031;-71
2023/03/15 03:51:50;;;;;;;8.77;4.18;;;;;;;;;;5097206;28;20028;-71
2023/03/15 03:54:36;;;;;;;11.38;4.40;;;;;;;;;;5096638;28;20145;-71
2023/03/15 03:57:22;;;;;;;8.20;4.78;;;;;;;;;;5096805;28;20016;-71
2023/03/15 04:00:10;;;;;;;6.70;3.80;;;;;;;;;;5096657;28;20016;-71
2023/03/15 04:02:56;;;;;;;9.50;4.55;;;;;;;;;;5082861;28;20020;-71
2023/03/15 04:05:41;;;;;;;6.68;4.47;;;;;;;;;;5096409;28;20012;-70
2023/03/15 04:08:27;;;;;;;9.95;4.78;;;;;;;;;;5096439;28;20024;-71
2023/03/15 04:11:16;;;;;;;10.50;4.53;;;;;;;;;;5082909;28;20020;-70
2023/03/15 04:14:01;;;;;;;9.52;4.75;;;;;;;;;;5096375;28;20028;-71
2023/03/15 04:16:47;;;;;;;10.02;4.38;;;;;;;;;;5095577;28;20024;-71
2023/03/15 04:19:33;;;;;;;9.00;4.45;;;;;;;;;;5096306;28;20016;-70
2023/03/15 04:22:18;;;;;;;11.20;4.30;;;;;;;;;;5095574;28;20441;-71
2023/03/15 04:25:05;;;;;;;15.98;5.05;;;;;;;;;;5097220;28;20032;-71
2023/03/15 04:27:57;;;;;;;15.88;4.72;;;;;;;;;;5095909;28;20024;-71
2023/03/15 04:30:43;;;;;;;15.73;5.38;;;;;;;;;;5096330;28;20012;-72
2023/03/15 04:33:30;;;;;;;14.50;5.78;;;;;;;;;;5081758;28;20031;-70
2023/03/15 04:36:19;;;;;;;9.27;5.15;;;;;;;;;;5096516;28;20101;-70
2023/03/15 04:39:05;;;;;;;13.52;6.38;;;;;;;;;;5096040;28;20024;-71
2023/03/15 04:41:53;;;;;;;11.15;6.03;;;;;;;;;;5095827;28;20146;-71
2023/03/15 04:44:39;;;;;;;13.63;6.30;;;;;;;;;;5095109;28;20471;-70
2023/03/15 04:47:25;;;;;;;13.68;6.20;;;;;;;;;;5096318;28;20031;-70
2023/03/15 04:50:12;;;;;;;11.13;5.85;;;;;;;;;;5096066;28;20020;-70
2023/03/15 04:52:58;;;;;;;9.23;5.53;;;;;;;;;;5095335;28;20369;-70
2023/03/15 04:55:44;;;;;;;10.90;5.43;;;;;;;;;;5081557;28;20091;-70
2023/03/15 04:58:29;;;;;;;28.15;5.95;;;;;;;;;;5095990;28;20106;-70
2023/03/15 05:01:15;;;;;;;15.43;6.45;;;;;;;;;;5095783;28;20020;-72
2023/03/15 05:04:00;;;;;;;12.70;6.40;;;;;;;;;;5095580;28;20020;-71
2023/03/15 05:06:46;;;;;;;14.25;6.13;;;;;;;;;;5095481;28;20119;-70
2023/03/15 05:09:36;;;;;;;9.02;5.95;;;;;;;;;;5080919;28;20016;-72
2023/03/15 05:12:23;;;;;;;13.18;6.50;;;;;;;;;;5095402;28;20371;-71
2023/03/15 05:15:09;;;;;;;43.78;8.70;;;;;;;;;;5081428;28;20447;-71
2023/03/15 05:17:54;;;;;;;21.75;8.40;;;;;;;;;;5094542;28;20163;-71
2023/03/15 05:20:40;;;;;;;15.95;6.80;;;;;;;;;;5095819;28;20012;-71
2023/03/15 05:23:26;;;;;;;20.48;6.97;;;;;;;;;;5095002;28;20349;-70
2023/03/15 05:26:11;;;;;;;17.05;6.13;;;;;;;;;;5094227;28;20035;-71
2023/03/15 05:28:57;;;;;;;16.30;6.95;;;;;;;;;;5094808;28;20375;-72
2023/03/15 05:31:42;;;;;;;20.85;6.75;;;;;;;;;;5094413;28;20028;-70
2023/03/15 05:34:28;;;;;;;18.48;7.85;;;;;;;;;;5081210;28;20027;-71
2023/03/15 05:37:13;;;;;;;21.77;8.38;;;;;;;;;;5094862;28;20016;-70
2023/03/15 05:40:00;;;;;;;28.08;8.48;;;;;;;;;;5094713;28;20072;-70
2023/03/15 05:42:45;;;;;;;20.75;7.88;;;;;;;;;;5094784;28;20047;-72
2023/03/15 05:45:31;;;;;;;29.27;8.05;;;;;;;;;;5094716;28;20329;-72
2023/03/15 05:48:16;;;;;;;32.08;6.45;;;;;;;;;;5095120;28;20024;-71
2023/03/15 05:51:02;;;;;;;19.60;7.55;;;;;;;;;;5094807;28;20024;-71
2023/03/15 05:53:48;;;;;;;26.38;9.20;;;;;;;;;;5094248;28;20062;-72
2023/03/15 05:56:33;;;;;;;21.90;7.88;;;;;;;;;;5094378;28;20364;-70
2023/03/15 05:59:19;;;;;;;14.43;7.20;;;;;;;;;;5094921;28;20020;-71
2023/03/15 06:02:05;;;;;;;15.20;7.80;;;;;;;;;;5096306;27;20012;-71
2023/03/15 06:04:50;;;;;;;23.70;8.35;;;;;;;;;;5093870;28;20047;-72
2023/03/15 06:07:36;;;;;;;58.17;27.40;;;;;;;;;;5094367;28;20415;-71
2023/03/15 06:10:22;;;;;;;22.58;8.75;;;;;;;;;;5094214;28;20047;-71
2023/03/15 06:13:07;;;;;;;20.95;8.60;;;;;;;;;;5094559;28;20093;-72
2023/03/15 06:15:53;;;;;;;17.15;7.60;;;;;;;;;;5095029;28;20020;-71
2023/03/15 06:18:38;;;;;;;15.40;7.65;;;;;;;;;;5094840;28;20023;-71
2023/03/15 06:21:24;;;;;;;18.75;7.80;;;;;;;;;;5093941;28;20444;-72
2023/03/15 06:24:10;;;;;;;23.38;7.05;;;;;;;;;;5079629;28;20042;-72
2023/03/15 06:26:55;;;;;;;17.90;6.90;;;;;;;;;;5079594;28;20044;-71
2023/03/15 06:29:41;;;;;;;16.33;6.70;;;;;;;;;;5078648;28;20370;-71
2023/03/15 06:32:26;;;;;;;19.88;7.30;;;;;;;;;;5093674;28;20020;-72
2023/03/15 06:35:12;;;;;;;20.40;8.23;;;;;;;;;;5094452;28;20402;-72
2023/03/15 06:37:58;;;;;;;23.30;9.15;;;;;;;;;;5094242;28;20024;-73
2023/03/15 06:40:43;;;;;;;19.90;9.18;;;;;;;;;;5093748;28;20020;-72
2023/03/15 06:43:29;;;;;;;29.55;9.73;;;;;;;;;;5094138;28;20417;-76
2023/03/15 06:46:15;;;;;;;24.13;10.57;;;;;;;;;;5094207;28;20028;-73
2023/03/15 06:49:01;;;;;;;22.27;10.95;;;;;;;;;;5079277;28;20031;-75
2023/03/15 06:51:47;;;;;;;22.85;9.82;;;;;;;;;;5094043;28;20104;-73
2023/03/15 06:54:33;;;;;;;23.58;9.30;;;;;;;;;;5080620;28;20024;-72
2023/03/15 06:57:18;;;;;;;17.63;8.07;;;;;;;;;;5094114;28;20075;-72
2023/03/15 07:00:10;;;;;;;23.00;8.60;;;;;;;;;;5093774;28;20028;-72
2023/03/15 07:02:55;;;;;;;23.10;8.95;;;;;;;;;;5093237;28;20356;-73
2023/03/15 07:05:41;;;;;;;22.55;8.75;;;;;;;;;;5093710;28;20024;-74
2023/03/15 07:08:26;;;;;;;18.08;8.57;;;;;;;;;;5093892;28;20035;-74
2023/03/15 07:11:12;;;;;;;18.55;8.75;;;;;;;;;;5093861;28;20031;-74
2023/03/15 07:13:58;;;;;;;34.33;9.88;;;;;;;;;;5079288;28;20099;-76
2023/03/15 07:16:46;;;;;;;22.65;9.20;;;;;;;;;;5079388;28;20028;-72
2023/03/15 07:19:31;;;;;;;20.95;8.65;;;;;;;;;;5093483;28;20024;-71
2023/03/15 07:22:17;;;;;;;14.88;8.43;;;;;;;;;;5093309;28;20023;-72
2023/03/15 07:25:05;;;;;;;19.20;9.63;;;;;;;;;;5079844;28;20364;-71
2023/03/15 07:27:51;;;;;;;25.05;9.15;;;;;;;;;;5091822;28;20039;-69
2023/03/15 07:30:37;;;;;;;15.35;9.00;;;;;;;;;;5093307;28;20081;-69
2023/03/15 07:33:23;;;;;;;24.95;9.10;;;;;;;;;;5093664;28;20028;-71
2023/03/15 07:36:09;;;;;;;19.75;8.25;;;;;;;;;;5079202;28;20093;-72
2023/03/15 07:38:55;;;;;;;23.48;7.18;;;;;;;;;;5093942;28;20552;-71
2023/03/15 07:41:40;;;;;;;16.45;7.20;;;;;;;;;;5093869;28;20031;-72
2023/03/15 07:44:26;;;;;;;15.18;7.30;;;;;;;;;;5093809;28;20467;-73
2023/03/15 07:47:11;;;;;;;18.05;6.53;;;;;;;;;;5092920;28;20038;-72
2023/03/15 07:49:57;;;;;;;15.50;6.95;;;;;;;;;;5093528;28;20027;-72
2023/03/15 07:52:43;;;;;;;24.73;8.07;;;;;;;;;;5097171;28;20042;-72
2023/03/15 07:55:28;;;;;;;13.30;6.43;;;;;;;;;;5096650;28;20103;-72
2023/03/15 07:58:14;;;;;;;15.02;6.78;;;;;;;;;;5097451;28;20356;-73
2023/03/15 08:01:00;;;;;;;20.88;7.03;;;;;;;;;;5114239;28;20022;-73
2023/03/15 08:03:46;;;;;;;13.65;6.35;;;;;;;;;;5116801;28;20118;-72
2023/03/15 08:06:31;;;;;;;13.20;6.57;;;;;;;;;;5115943;28;20046;-72
2023/03/15 08:09:17;;;;;;;14.02;6.28;;;;;;;;;;5117674;28;20027;-72
2023/03/15 08:12:02;;;;;;;14.52;6.00;;;;;;;;;;5117498;28;20016;-72
2023/03/15 08:14:48;;;;;;;16.70;6.65;;;;;;;;;;5117335;28;20028;-72
2023/03/15 08:17:34;;;;;;;13.13;6.47;;;;;;;;;;5103774;28;20054;-71
2023/03/15 08:20:20;;;;;;;17.98;6.82;;;;;;;;;;5103453;28;20020;-71
2023/03/15 08:23:06;;;;;;;11.45;5.97;;;;;;;;;;5113755;28;20031;-72
2023/03/15 08:25:51;;;;;;;14.52;6.95;;;;;;;;;;5115916;28;20468;-70
2023/03/15 08:28:37;;;;;;;16.67;7.13;;;;;;;;;;5116615;28;20028;-72
2023/03/15 08:31:23;;;;;;;16.60;6.88;;;;;;;;;;5116454;28;20026;-71
2023/03/15 08:34:08;;;;;;;75.93;44.80;;;;;;;;;;5116564;28;20409;-71
2023/03/15 08:36:54;;;;;;;18.10;8.02;;;;;;;;;;5115800;28;20455;-71
2023/03/15 08:39:39;;;;;;;14.52;6.28;;;;;;;;;;5115833;28;20027;-72
2023/03/15 08:42:26;;;;;;;17.13;5.90;;;;;;;;;;5116232;28;20027;-72
2023/03/15 08:45:11;;;;;;;23.27;6.13;;;;;;;;;;5117599;28;20102;-71
2023/03/15 08:47:57;;;;;;;12.57;6.10;;;;;;;;;;5115818;28;20062;-72
2023/03/15 08:50:43;;;;;;;14.48;8.02;;;;;;;;;;5116106;28;20106;-71
2023/03/15 08:53:30;;;;;;;8.65;5.72;;;;;;;;;;5101722;28;20442;-71
2023/03/15 08:56:15;;;;;;;14.05;5.57;;;;;;;;;;5115709;28;20418;-73
2023/03/15 08:59:01;;;;;;;13.50;5.95;;;;;;;;;;5117068;28;20012;-74
2023/03/15 09:01:46;;;;;;;7.63;4.75;;;;;;;;;;5116395;28;20030;-72
2023/03/15 09:04:32;;;;;;;10.70;5.10;;;;;;;;;;5116253;28;20051;-72
2023/03/15 09:07:18;;;;;;;15.65;4.95;;;;;;;;;;5102318;28;20063;-72
2023/03/15 09:10:04;;;;;;;10.63;5.10;;;;;;;;;;5103592;28;20134;-72
2023/03/15 09:12:52;;;;;;;15.63;5.43;;;;;;;;;;5093553;28;20039;-70
2023/03/15 09:15:38;;;;;;;15.00;5.13;;;;;;;;;;5096152;28;20508;-71
2023/03/15 09:18:25;;;;;;;11.35;4.63;;;;;;;;;;5095352;28;20059;-71
2023/03/15 09:21:10;;;;;;;7.70;4.13;;;;;;;;;;5095553;28;20023;-71
2023/03/15 09:23:56;;;;;;;6.78;3.70;;;;;;;;;;5080291;28;20390;-72
2023/03/15 09:26:42;;;;;;;11.70;4.43;;;;;;;;;;5095132;28;20020;-72
2023/03/15 09:29:27;;;;;;;9.35;4.38;;;;;;;;;;5094132;28;20119;-71
2023/03/15 09:32:13;;;;;;;11.43;4.05;;;;;;;;;;5094250;28;20028;-70
2023/03/15 09:34:59;;;;;;;8.18;4.05;;;;;;;;;;5094215;28;20020;-70
2023/03/15 09:37:45;;;;;;;6.40;3.85;;;;;;;;;;5094122;28;20052;-71
2023/03/15 09:40:32;;;;;;;6.95;4.05;;;;;;;;;;5093905;28;20456;-71
2023/03/15 09:43:33;;;;;;;9.63;3.55;;;;;;;;;;5094467;28;20039;-69
2023/03/15 09:46:25;;;;;;;7.03;3.42;;;;;;;;;;5080123;28;20027;-71
2023/03/15 09:49:14;;;;;;;8.45;3.65;;;;;;;;;;5078694;28;20046;-71
2023/03/15 09:52:03;;;;;;;8.30;3.63;;;;;;;;;;5094666;28;20024;-70
2023/03/15 09:54:55;;;;;;;7.63;3.63;;;;;;;;;;5079706;28;20448;-70
2023/03/15 09:57:50;;;;;;;8.27;3.80;;;;;;;;;;5081478;28;20149;-71
2023/03/15 10:00:40;;;;;;;7.97;4.15;;;;;;;;;;5094147;28;20436;-71
2023/03/15 10:03:46;;;;;;;5.10;3.55;;;;;;;;;;5094262;28;20027;-71
2023/03/15 10:06:33;;;;;;;9.38;3.85;;;;;;;;;;5093728;28;20071;-71
2023/03/15 10:09:23;;;;;;;7.82;3.40;;;;;;;;;;5094618;28;20040;-69
2023/03/15 10:12:12;;;;;;;10.82;4.43;;;;;;;;;;5078969;28;20020;-71
2023/03/15 10:15:16;;;;;;;8.68;3.63;;;;;;;;;;5077453;28;20365;-73
2023/03/15 10:18:26;;;;;;;7.78;4.13;;;;;;;;;;5093909;28;20107;-72
2023/03/15 10:21:15;;;;;;;9.48;4.50;;;;;;;;;;5048379;28;20028;-72
2023/03/15 10:24:02;;;;;;;13.15;4.30;;;;;;;;;;5078948;28;20063;-72
2023/03/15 10:26:49;;;;;;;8.00;4.25;;;;;;;;;;5094144;28;20028;-73
2023/03/15 10:29:35;;;;;;;8.55;4.28;;;;;;;;;;5093572;28;20031;-72
2023/03/15 10:32:24;;;;;;;8.82;3.78;;;;;;;;;;5078597;28;20387;-72
2023/03/15 10:35:13;;;;;;;9.45;3.95;;;;;;;;;;5093617;28;20449;-72
2023/03/15 10:37:58;;;;;;;10.43;4.15;;;;;;;;;;5097714;28;20020;-72
2023/03/15 10:40:45;;;;;;;9.77;4.13;;;;;;;;;;5098382;28;20034;-71
2023/03/15 10:43:35;;;;;;;7.45;4.07;;;;;;;;;;5114519;28;20015;-72
2023/03/15 10:46:21;;;;;;;9.80;3.80;;;;;;;;;;5095334;28;20024;-72
2023/03/15 10:49:11;;;;;;;6.28;3.42;;;;;;;;;;5079768;28;20031;-71
2023/03/15 10:51:57;;;;;;;6.05;3.88;;;;;;;;;;5093979;28;20050;-72
2023/03/15 10:54:42;;;;;;;10.07;4.10;;;;;;;;;;5093766;28;20478;-71
2023/03/15 10:57:32;;;;;;;6.72;3.60;;;;;;;;;;5094113;28;20028;-72
2023/03/15 11:00:32;;;;;;;8.55;3.25;;;;;;;;;;5093878;28;20023;-72
2023/03/15 11:03:22;;;;;;;5.50;3.80;;;;;;;;;;5094394;28;20524;-74
2023/03/15 11:06:21;;;;;;;5.22;3.42;;;;;;;;;;5093836;28;20522;-73
2023/03/15 11:09:08;;;;;;;9.52;3.40;;;;;;;;;;5094663;28;20427;-71
2023/03/15 11:11:56;;;;;;;7.68;3.15;;;;;;;;;;5093556;28;20111;-72
2023/03/15 11:14:45;;;;;;;11.73;3.25;;;;;;;;;;5094308;28;20024;-71
2023/03/15 11:17:32;;;;;;;12.25;4.20;;;;;;;;;;5094805;28;20077;-72
2023/03/15 11:20:24;;;;;;;9.55;3.90;;;;;;;;;;5093566;28;20009;-71
2023/03/15 11:23:19;;;;;;;7.88;3.60;;;;;;;;;;5093027;28;20020;-71
2023/03/15 11:26:05;;;;;;;6.45;3.60;;;;;;;;;;5095603;28;20105;-70
2023/03/15 11:28:52;;;;;;;7.97;3.80;;;;;;;;;;5095959;28;20028;-71
2023/03/15 11:31:38;;;;;;;6.70;3.28;;;;;;;;;;5098382;28;20039;-77
2023/03/15 11:34:29;;;;;;;6.18;3.33;;;;;;;;;;5082830;28;20016;-71
2023/03/15 11:37:18;;;;;;;8.85;3.97;;;;;;;;;;5097392;28;20016;-71
2023/03/15 11:40:08;;;;;;;11.68;3.95;;;;;;;;;;5081266;28;20016;-71
2023/03/15 11:43:00;;;;;;;6.82;3.53;;;;;;;;;;5096890;28;20049;-74
2023/03/15 11:45:54;;;;;;;6.70;3.50;;;;;;;;;;5096803;28;20069;-72
2023/03/15 11:48:47;;;;;;;8.43;3.20;;;;;;;;;;5095985;28;20024;-69
2023/03/15 11:51:34;;;;;;;8.40;3.25;;;;;;;;;;5095954;28;20454;-72
2023/03/15 11:54:20;;;;;;;12.43;3.60;;;;;;;;;;5096961;28;20031;-71
2023/03/15 11:57:26;;;;;;;4.15;2.85;;;;;;;;;;5096819;28;20471;-72
2023/03/15 12:00:14;;;;;;;6.93;3.50;;;;;;;;;;5095890;28;20031;-71
2023/03/15 12:03:18;;;;;;;12.60;5.20;;;;;;;;;;5082314;28;20043;-71
2023/03/15 12:06:04;;;;;;;7.30;3.40;;;;;;;;;;5095382;28;20040;-71
2023/03/15 12:08:51;;;;;;;21.08;3.85;;;;;;;;;;5094949;28;20035;-70
2023/03/15 12:11:38;;;;;;;5.13;2.95;;;;;;;;;;5096177;28;20024;-72
2023/03/15 12:14:27;;;;;;;5.80;3.10;;;;;;;;;;5096430;28;20105;-71
2023/03/15 12:17:27;;;;;;;26.00;4.40;;;;;;;;;;5096352;28;20023;-71
2023/03/15 12:20:13;;;;;;;5.55;3.30;;;;;;;;;;5095770;28;20035;-71
2023/03/15 12:23:19;;;;;;;4.80;3.22;;;;;;;;;;5095385;28;20047;-72
2023/03/15 12:26:07;;;;;;;13.13;3.28;;;;;;;;;;5081063;28;20031;-72
2023/03/15 12:28:59;;;;;;;8.35;3.88;;;;;;;;;;5095924;28;20028;-71
2023/03/15 12:31:52;;;;;;;7.45;3.70;;;;;;;;;;5096248;28;20445;-74
2023/03/15 12:34:44;;;;;;;6.28;3.83;;;;;;;;;;5091448;28;20020;-72
2023/03/15 12:37:37;;;;;;;9.02;3.78;;;;;;;;;;5100970;28;20016;-71
2023/03/15 12:40:46;;;;;;;24.13;14.25;;;;;;;;;;5103421;27;20015;-70
2023/03/15 12:43:42;;;;;;;12.80;6.28;;;;;;;;;;5116315;28;20022;-72
2023/03/15 12:46:37;;;;;;;19.30;8.07;;;;;;;;;;5116322;28;20066;-70
2023/03/15 12:49:22;;;;;;;12.07;5.72;;;;;;;;;;5116822;28;20028;-71
2023/03/15 12:52:14;;;;;;;12.07;5.15;;;;;;;;;;5116355;28;20359;-70
2023/03/15 12:55:03;;;;;;;12.38;5.78;;;;;;;;;;5116244;28;20019;-70
2023/03/15 12:57:52;;;;;;;7.45;5.45;;;;;;;;;;5116303;28;20462;-70
2023/03/15 13:00:40;;;;;;;8.52;4.63;;;;;;;;;;5102850;28;20050;-69
2023/03/15 13:03:26;;;;;;;11.48;4.97;;;;;;;;;;5115836;28;20020;-70
2023/03/15 13:06:27;;;;;;;7.50;4.53;;;;;;;;;;5116361;28;20393;-71
2023/03/15 13:09:25;;;;;;;8.88;4.32;;;;;;;;;;5117006;28;20051;-69
2023/03/15 13:12:18;;;;;;;8.07;4.85;;;;;;;;;;5116804;28;20407;-71
2023/03/15 13:15:03;;;;;;;12.90;5.18;;;;;;;;;;5117396;28;20384;-72
2023/03/15 13:17:51;;;;;;;10.05;5.35;;;;;;;;;;5101959;28;20137;-72
2023/03/15 13:20:42;;;;;;;15.88;6.63;;;;;;;;;;5116730;28;20031;-70
2023/03/15 13:23:29;;;;;;;25.98;7.75;;;;;;;;;;5101142;28;20020;-68
2023/03/15 13:26:24;;;;;;;10.15;5.78;;;;;;;;;;5116732;28;20440;-69
2023/03/15 13:29:18;;;;;;;9.18;5.43;;;;;;;;;;5115518;28;20019;-71
2023/03/15 13:32:12;;;;;;;11.13;5.78;;;;;;;;;;5116530;28;20015;-69
2023/03/15 13:34:58;;;;;;;17.23;5.88;;;;;;;;;;5099968;28;20028;-69
2023/03/15 13:37:44;;;;;;;11.77;5.78;;;;;;;;;;5102178;27;20026;-69
2023/03/15 13:40:29;;;;;;;18.10;6.82;;;;;;;;;;5101843;28;20138;-69
2023/03/15 13:43:15;;;;;;;8.93;5.70;;;;;;;;;;5115663;28;20517;-71
2023/03/15 13:46:01;;;;;;;17.55;6.00;;;;;;;;;;5115794;28;20072;-71
2023/03/15 13:48:46;;;;;;;13.93;5.70;;;;;;;;;;5115687;28;20034;-71
2023/03/15 13:51:33;;;;;;;15.95;5.32;;;;;;;;;;5102953;28;20368;-69
2023/03/15 13:54:34;;;;;;;10.95;4.72;;;;;;;;;;5116106;28;20406;-68
2023/03/15 13:57:21;;;;;;;11.90;6.00;;;;;;;;;;5098913;28;20047;-69
2023/03/15 14:00:16;;;;;;;15.15;6.20;;;;;;;;;;5115820;28;20099;-70
2023/03/15 14:03:04;;;;;;;10.15;5.75;;;;;;;;;;5095373;28;20372;-69
2023/03/15 14:05:51;;;;;;;9.90;5.78;;;;;;;;;;5094735;28;20020;-69
2023/03/15 14:08:38;;;;;;;10.20;6.68;;;;;;;;;;5095869;28;20102;-69
2023/03/15 14:11:23;;;;;;;15.05;6.22;;;;;;;;;;5095508;28;20077;-71
2023/03/15 14:14:26;;;;;;;9.05;5.90;;;;;;;;;;5094526;28;20047;-68
2023/03/15 14:17:21;;;;;;;16.25;6.20;;;;;;;;;;5095166;28;20479;-69
2023/03/15 14:20:14;;;;;;;11.32;5.97;;;;;;;;;;5094582;28;20016;-68
2023/03/15 14:23:00;;;;;;;17.95;5.85;;;;;;;;;;5094490;28;20448;-69
2023/03/15 14:25:53;;;;;;;12.10;5.18;;;;;;;;;;5080658;28;20024;-69
2023/03/15 14:28:40;;;;;;;10.88;5.05;;;;;;;;;;5095205;28;20397;-70
2023/03/15 14:31:26;;;;;;;11.02;4.85;;;;;;;;;;5094146;28;20113;-69
2023/03/15 14:34:38;;;;;;;13.77;5.30;;;;;;;;;;5094884;28;20028;-69
2023/03/15 14:37:26;;;;;;;8.30;4.82;;;;;;;;;;5094563;28;20028;-70
2023/03/15 14:40:21;;;;;;;13.35;5.50;;;;;;;;;;5094695;28;20043;-70
2023/03/15 14:43:07;;;;;;;10.45;5.05;;;;;;;;;;5094003;28;20099;-70
2023/03/15 14:45:52;;;;;;;10.52;5.07;;;;;;;;;;5094175;28;20028;-68
2023/03/15 14:48:38;;;;;;;11.98;5.70;;;;;;;;;;5094220;28;20107;-69
2023/03/15 14:51:27;;;;;;;8.88;4.45;;;;;;;;;;5093858;28;20043;-70
2023/03/15 14:54:12;;;;;;;8.18;4.47;;;;;;;;;;5094478;28;20093;-71
2023/03/15 14:56:58;;;;;;;14.93;5.60;;;;;;;;;;5093409;28;20027;-69
2023/03/15 14:59:44;;;;;;;16.55;5.47;;;;;;;;;;5094374;28;20020;-69
2023/03/15 15:02:31;;;;;;;8.77;4.68;;;;;;;;;;5097785;28;20016;-70
2023/03/15 15:05:23;;;;;;;8.57;4.57;;;;;;;;;;5096985;28;20024;-70
2023/03/15 15:08:11;;;;;;;10.05;5.20;;;;;;;;;;5098520;28;20131;-71
2023/03/15 15:10:57;;;;;;;10.25;5.10;;;;;;;;;;5084358;28;20028;-70
2023/03/15 15:13:43;;;;;;;9.65;5.15;;;;;;;;;;5098279;28;20028;-70
2023/03/15 15:16:28;;;;;;;15.95;5.40;;;;;;;;;;5097168;28;20039;-68
2023/03/15 15:19:14;;;;;;;15.43;5.40;;;;;;;;;;5083839;28;20024;-68
2023/03/15 15:22:00;;;;;;;10.57;4.90;;;;;;;;;;5097720;28;20027;-74
2023/03/15 15:24:45;;;;;;;10.95;5.22;;;;;;;;;;5084280;28;20093;-69
2023/03/15 15:27:31;;;;;;;12.95;5.55;;;;;;;;;;5082677;28;20440;-68
2023/03/15 15:30:18;;;;;;;12.95;5.22;;;;;;;;;;5097578;28;20036;-71
2023/03/15 15:33:03;;;;;;;17.73;5.95;;;;;;;;;;5101971;28;20515;-69
2023/03/15 15:35:52;;;;;;;10.18;6.18;;;;;;;;;;5077813;28;20020;-69
2023/03/15 15:38:39;;;;;;;13.63;5.82;;;;;;;;;;5077776;28;20021;-69
2023/03/15 15:41:26;;;;;;;10.57;6.63;;;;;;;;;;5077110;28;20330;-69
2023/03/15 15:44:16;;;;;;;29.42;8.35;;;;;;;;;;5078406;28;20024;-71
2023/03/15 15:47:01;;;;;;;19.17;7.13;;;;;;;;;;5063666;28;20021;-69
2023/03/15 15:49:47;;;;;;;15.30;7.78;;;;;;;;;;5077388;28;20466;-70
2023/03/15 15:52:33;;;;;;;15.88;8.15;;;;;;;;;;5062968;28;20025;-72
2023/03/15 15:55:22;;;;;;;16.50;9.02;;;;;;;;;;5077646;28;20041;-72
2023/03/15 15:58:08;;;;;;;17.95;9.23;;;;;;;;;;5077095;28;20012;-71
2023/03/15 16:00:54;;;;;;;19.23;9.15;;;;;;;;;;5076740;28;20026;-70
2023/03/15 16:03:40;;;;;;;15.88;8.27;;;;;;;;;;5076713;28;20444;-71
2023/03/15 16:06:26;;;;;;;21.67;9.73;;;;;;;;;;5077077;28;20056;-71
2023/03/15 16:09:12;;;;;;;21.10;8.85;;;;;;;;;;5076899;28;20040;-71
2023/03/15 16:11:58;;;;;;;17.15;9.35;;;;;;;;;;5062801;28;20063;-73
2023/03/15 16:14:43;;;;;;;24.17;10.35;;;;;;;;;;5076804;28;20337;-70
2023/03/15 16:17:29;;;;;;;55.72;11.25;;;;;;;;;;5076483;28;20021;-72
2023/03/15 16:20:15;;;;;;;23.95;10.60;;;;;;;;;;5076192;28;20056;-71
2023/03/15 16:23:01;;;;;;;25.85;10.18;;;;;;;;;;5076169;28;20090;-70
2023/03/15 16:25:47;;;;;;;33.10;12.55;;;;;;;;;;5075441;28;20048;-72
2023/03/15 16:28:33;;;;;;;42.80;13.23;;;;;;;;;;5075899;28;20020;-72
2023/03/15 16:31:20;;;;;;;28.70;13.38;;;;;;;;;;5061465;28;20021;-73
2023/03/15 16:34:10;;;;;;;27.20;13.30;;;;;;;;;;5073922;28;20357;-71
2023/03/15 16:36:56;;;;;;;24.70;12.18;;;;;;;;;;5062147;28;20025;-71